Time;durP1;ratioP1;P1;durP2;ratioP2;P2;SDS_P1;SDS_P2;PMS_P1;PMS_P2;Temp;Humidity;BMP_temperature;BMP_pressure;BME280_temperature;BME280_humidity;BME280_pressure;Samples;Min_cycle;Max_cycle;Signal;HPM_P1;HPM_P2
2024/02/17 00:00:06;;;;;;;15.15;8.07;;;;;;;;;;5028926;28;20395;-52
2024/02/17 00:02:33;;;;;;;9.20;5.45;;;;;;;;;;5028177;28;20029;-54
2024/02/17 00:04:59;;;;;;;9.38;5.55;;;;;;;;;;5028689;28;20025;-53
2024/02/17 00:07:25;;;;;;;9.60;5.70;;;;;;;;;;5027492;28;20044;-57
2024/02/17 00:09:51;;;;;;;17.98;8.43;;;;;;;;;;5028850;28;20021;-54
2024/02/17 00:12:17;;;;;;;21.08;11.48;;;;;;;;;;5028576;28;20387;-57
2024/02/17 00:14:43;;;;;;;11.15;7.18;;;;;;;;;;5027359;28;20084;-56
2024/02/17 00:17:09;;;;;;;9.52;6.00;;;;;;;;;;5027302;28;20602;-54
2024/02/17 00:19:35;;;;;;;18.45;11.38;;;;;;;;;;5027361;28;20026;-56
2024/02/17 00:22:01;;;;;;;16.15;9.05;;;;;;;;;;5026976;28;20029;-54
2024/02/17 00:24:27;;;;;;;9.63;5.93;;;;;;;;;;5028516;28;20029;-56
2024/02/17 00:26:53;;;;;;;16.98;9.77;;;;;;;;;;5028736;28;20032;-57
2024/02/17 00:29:20;;;;;;;56.72;42.80;;;;;;;;;;5026766;28;20779;-55
2024/02/17 00:31:49;;;;;;;10.00;6.13;;;;;;;;;;5022847;28;20056;-55
2024/02/17 00:34:18;;;;;;;14.82;9.13;;;;;;;;;;5026270;28;20511;-55
2024/02/17 00:36:44;;;;;;;9.45;5.57;;;;;;;;;;5028570;28;20021;-54
2024/02/17 00:39:10;;;;;;;22.63;10.93;;;;;;;;;;5028297;28;20106;-56
2024/02/17 00:41:37;;;;;;;14.85;7.55;;;;;;;;;;5028367;28;20029;-53
2024/02/17 00:44:03;;;;;;;11.60;7.13;;;;;;;;;;5027958;28;20040;-57
2024/02/17 00:46:29;;;;;;;11.35;7.40;;;;;;;;;;5028196;28;20080;-56
2024/02/17 00:48:55;;;;;;;17.42;12.85;;;;;;;;;;5028231;28;20428;-56
2024/02/17 00:51:21;;;;;;;12.48;8.75;;;;;;;;;;5028340;28;20107;-54
2024/02/17 00:53:47;;;;;;;11.65;6.55;;;;;;;;;;5026974;28;20060;-55
2024/02/17 00:56:13;;;;;;;9.10;5.60;;;;;;;;;;5028228;28;20108;-55
2024/02/17 00:58:39;;;;;;;11.88;7.55;;;;;;;;;;5028393;28;20022;-56
2024/02/17 01:01:05;;;;;;;9.30;6.18;;;;;;;;;;5028044;28;20100;-57
2024/02/17 01:03:31;;;;;;;11.30;8.05;;;;;;;;;;5029749;28;20372;-55
2024/02/17 01:05:57;;;;;;;8.82;5.57;;;;;;;;;;5031466;28;20035;-57
2024/02/17 01:08:23;;;;;;;13.18;5.85;;;;;;;;;;5031726;28;20021;-56
2024/02/17 01:10:50;;;;;;;8.77;5.00;;;;;;;;;;5031629;28;20022;-56
2024/02/17 01:13:16;;;;;;;10.57;6.07;;;;;;;;;;5035769;28;20589;-56
2024/02/17 01:15:42;;;;;;;11.93;6.07;;;;;;;;;;5027951;28;20018;-54
2024/02/17 01:18:08;;;;;;;10.57;5.85;;;;;;;;;;5029119;28;20033;-56
2024/02/17 01:20:34;;;;;;;12.52;8.02;;;;;;;;;;5010346;28;20499;-55
2024/02/17 01:23:00;;;;;;;9.02;5.43;;;;;;;;;;5029154;28;20518;-56
2024/02/17 01:25:26;;;;;;;11.15;7.10;;;;;;;;;;5031248;28;20030;-56
2024/02/17 01:27:53;;;;;;;14.45;8.32;;;;;;;;;;5029781;28;20021;-55
2024/02/17 01:30:19;;;;;;;11.73;7.63;;;;;;;;;;5031290;28;20531;-55
2024/02/17 01:32:45;;;;;;;9.95;6.18;;;;;;;;;;5030992;28;20029;-56
2024/02/17 01:35:13;;;;;;;13.98;7.25;;;;;;;;;;5030903;28;20086;-56
2024/02/17 01:37:39;;;;;;;12.47;8.60;;;;;;;;;;5029822;28;20566;-54
2024/02/17 01:40:06;;;;;;;18.15;10.85;;;;;;;;;;5030874;28;20029;-56
2024/02/17 01:42:32;;;;;;;8.70;5.15;;;;;;;;;;5030746;28;20500;-56
2024/02/17 01:44:58;;;;;;;14.40;9.52;;;;;;;;;;5030621;28;20043;-53
2024/02/17 01:47:24;;;;;;;23.67;13.43;;;;;;;;;;5029613;28;20017;-63
2024/02/17 01:49:51;;;;;;;10.88;6.85;;;;;;;;;;5030751;28;20017;-52
2024/02/17 01:52:19;;;;;;;13.52;8.48;;;;;;;;;;5030712;28;20021;-52
2024/02/17 01:54:46;;;;;;;24.27;11.02;;;;;;;;;;5029590;28;20091;-56
2024/02/17 01:57:12;;;;;;;13.48;8.40;;;;;;;;;;5030853;28;20228;-56
2024/02/17 01:59:39;;;;;;;8.80;5.10;;;;;;;;;;5039219;28;20025;-57
2024/02/17 02:02:05;;;;;;;9.60;5.40;;;;;;;;;;5049355;28;20025;-57
2024/02/17 02:04:31;;;;;;;14.70;10.85;;;;;;;;;;5049316;28;20047;-57
2024/02/17 02:06:57;;;;;;;13.48;8.02;;;;;;;;;;5049252;28;20164;-56
2024/02/17 02:09:25;;;;;;;9.80;6.20;;;;;;;;;;5051197;28;20078;-53
2024/02/17 02:11:56;;;;;;;10.48;6.70;;;;;;;;;;5050999;28;20021;-60
2024/02/17 02:14:23;;;;;;;16.50;9.25;;;;;;;;;;5051966;28;20051;-58
2024/02/17 02:16:49;;;;;;;13.75;6.25;;;;;;;;;;5053564;28;20491;-59
2024/02/17 02:19:15;;;;;;;9.95;6.38;;;;;;;;;;5053755;28;20025;-59
2024/02/17 02:21:42;;;;;;;11.32;7.78;;;;;;;;;;5054126;28;20116;-55
2024/02/17 02:24:09;;;;;;;19.58;10.93;;;;;;;;;;5050980;28;20167;-52
2024/02/17 02:26:35;;;;;;;11.80;7.43;;;;;;;;;;5050658;28;20485;-53
2024/02/17 02:29:01;;;;;;;12.23;7.95;;;;;;;;;;5050333;28;20047;-58
2024/02/17 02:31:29;;;;;;;13.75;10.95;;;;;;;;;;5048928;28;20466;-52
2024/02/17 02:33:55;;;;;;;10.50;6.18;;;;;;;;;;5050480;28;20421;-56
2024/02/17 02:36:21;;;;;;;24.20;13.70;;;;;;;;;;5050491;28;20036;-59
2024/02/17 02:38:48;;;;;;;22.27;10.88;;;;;;;;;;5048796;28;20029;-56
2024/02/17 02:41:14;;;;;;;14.93;9.02;;;;;;;;;;5049715;28;20122;-53
2024/02/17 02:43:40;;;;;;;11.90;9.02;;;;;;;;;;5050090;28;20024;-53
2024/02/17 02:46:06;;;;;;;8.75;5.18;;;;;;;;;;5050013;28;20482;-57
2024/02/17 02:48:32;;;;;;;15.35;6.47;;;;;;;;;;5048720;28;20029;-56
2024/02/17 02:50:58;;;;;;;9.00;5.30;;;;;;;;;;5049748;28;20529;-54
2024/02/17 02:53:24;;;;;;;17.27;10.23;;;;;;;;;;5049501;28;20028;-56
2024/02/17 02:55:50;;;;;;;12.20;7.25;;;;;;;;;;5048315;28;20024;-53
2024/02/17 02:58:16;;;;;;;19.00;9.88;;;;;;;;;;5049495;28;20025;-55
2024/02/17 03:00:42;;;;;;;10.80;6.28;;;;;;;;;;5049295;28;20039;-52
2024/02/17 03:03:09;;;;;;;19.92;11.00;;;;;;;;;;5047810;28;20032;-56
2024/02/17 03:05:35;;;;;;;10.02;6.93;;;;;;;;;;5049285;28;20025;-54
2024/02/17 03:08:03;;;;;;;9.20;5.70;;;;;;;;;;5049329;28;20616;-54
2024/02/17 03:10:29;;;;;;;10.18;5.93;;;;;;;;;;5049403;28;20078;-54
2024/02/17 03:12:56;;;;;;;11.40;8.10;;;;;;;;;;5049206;28;20079;-55
2024/02/17 03:15:22;;;;;;;12.25;8.88;;;;;;;;;;5049404;28;20035;-54
2024/02/17 03:17:51;;;;;;;8.65;5.10;;;;;;;;;;5049285;28;20113;-53
2024/02/17 03:20:17;;;;;;;10.25;7.18;;;;;;;;;;5049254;28;20052;-57
2024/02/17 03:22:44;;;;;;;8.70;5.20;;;;;;;;;;5048913;28;20078;-52
2024/02/17 03:25:10;;;;;;;9.07;5.35;;;;;;;;;;5049029;28;20025;-51
2024/02/17 03:27:36;;;;;;;10.68;5.95;;;;;;;;;;5049030;28;20083;-54
2024/02/17 03:30:05;;;;;;;9.93;5.80;;;;;;;;;;5049092;28;20025;-58
2024/02/17 03:32:31;;;;;;;10.70;7.00;;;;;;;;;;5049072;28;20021;-54
2024/02/17 03:34:57;;;;;;;13.30;8.63;;;;;;;;;;5049494;28;20048;-53
2024/02/17 03:37:25;;;;;;;12.68;7.85;;;;;;;;;;5047944;28;20625;-52
2024/02/17 03:39:51;;;;;;;12.07;5.68;;;;;;;;;;5049194;28;20032;-52
2024/02/17 03:42:17;;;;;;;10.48;6.78;;;;;;;;;;5048929;28;20033;-53
2024/02/17 03:44:43;;;;;;;11.70;6.82;;;;;;;;;;5049148;28;20449;-52
2024/02/17 03:47:11;;;;;;;8.30;4.90;;;;;;;;;;5049513;28;20025;-55
2024/02/17 03:49:37;;;;;;;12.90;6.28;;;;;;;;;;5049933;28;20044;-56
2024/02/17 03:52:03;;;;;;;12.27;7.25;;;;;;;;;;5047664;28;20029;-57
2024/02/17 03:54:29;;;;;;;8.70;5.20;;;;;;;;;;5048932;28;20035;-55
2024/02/17 03:56:55;;;;;;;9.05;5.30;;;;;;;;;;5049166;28;20025;-56
2024/02/17 03:59:21;;;;;;;11.57;8.35;;;;;;;;;;5048946;28;20568;-53
2024/02/17 04:01:47;;;;;;;9.23;5.47;;;;;;;;;;5047329;28;20059;-56
2024/02/17 04:04:13;;;;;;;12.73;6.32;;;;;;;;;;5048793;28;20510;-55
2024/02/17 04:06:39;;;;;;;15.75;10.52;;;;;;;;;;5048615;28;20018;-53
2024/02/17 04:09:06;;;;;;;13.45;7.15;;;;;;;;;;5048554;28;20071;-53
2024/02/17 04:11:32;;;;;;;10.48;6.38;;;;;;;;;;5048375;28;20097;-55
2024/02/17 04:13:58;;;;;;;11.38;6.85;;;;;;;;;;5048429;28;20052;-57
2024/02/17 04:16:24;;;;;;;10.50;6.45;;;;;;;;;;5048544;28;20037;-57
2024/02/17 04:18:50;;;;;;;23.05;12.63;;;;;;;;;;5048409;28;20049;-55
2024/02/17 04:21:16;;;;;;;13.75;7.88;;;;;;;;;;5048375;28;20056;-57
2024/02/17 04:23:45;;;;;;;22.27;12.38;;;;;;;;;;5048360;28;20117;-54
2024/02/17 04:26:11;;;;;;;16.35;10.02;;;;;;;;;;5048234;28;20112;-55
2024/02/17 04:28:39;;;;;;;13.32;7.78;;;;;;;;;;5048474;28;20501;-56
2024/02/17 04:31:07;;;;;;;12.20;6.95;;;;;;;;;;5046937;28;20025;-54
2024/02/17 04:33:34;;;;;;;13.63;9.02;;;;;;;;;;5047934;28;20697;-56
2024/02/17 04:36:00;;;;;;;9.35;5.45;;;;;;;;;;5048227;28;20045;-55
2024/02/17 04:38:26;;;;;;;11.82;6.95;;;;;;;;;;5049593;28;20434;-55
2024/02/17 04:40:51;;;;;;;10.05;5.60;;;;;;;;;;5051920;28;20032;-53
2024/02/17 04:43:17;;;;;;;15.40;8.90;;;;;;;;;;5051741;28;20064;-56
2024/02/17 04:45:43;;;;;;;10.30;5.78;;;;;;;;;;5051738;28;20029;-54
2024/02/17 04:48:10;;;;;;;9.10;5.72;;;;;;;;;;5051999;28;20025;-55
2024/02/17 04:50:36;;;;;;;8.85;5.25;;;;;;;;;;5051773;28;20075;-54
2024/02/17 04:53:02;;;;;;;11.70;7.18;;;;;;;;;;5050706;28;20032;-55
2024/02/17 04:55:30;;;;;;;9.23;5.50;;;;;;;;;;5051909;28;20059;-56
2024/02/17 04:57:56;;;;;;;9.20;5.47;;;;;;;;;;5052208;28;20078;-56
2024/02/17 05:00:22;;;;;;;17.02;8.85;;;;;;;;;;5050767;28;20052;-54
2024/02/17 05:02:48;;;;;;;17.05;9.00;;;;;;;;;;5051542;28;20025;-56
2024/02/17 05:05:19;;;;;;;9.65;5.65;;;;;;;;;;5051958;28;20025;-54
2024/02/17 05:07:45;;;;;;;8.90;5.22;;;;;;;;;;5051954;28;20102;-55
2024/02/17 05:10:11;;;;;;;11.32;6.78;;;;;;;;;;5050809;28;20089;-55
2024/02/17 05:12:37;;;;;;;11.30;8.95;;;;;;;;;;5051307;28;20021;-55
2024/02/17 05:15:03;;;;;;;10.55;6.13;;;;;;;;;;5051400;28;20029;-55
2024/02/17 05:17:30;;;;;;;14.98;10.82;;;;;;;;;;5050026;28;20037;-55
2024/02/17 05:19:56;;;;;;;9.40;6.20;;;;;;;;;;5051426;28;20021;-55
2024/02/17 05:22:22;;;;;;;8.73;5.20;;;;;;;;;;5051352;28;20029;-56
2024/02/17 05:24:48;;;;;;;10.27;6.63;;;;;;;;;;5051262;28;20439;-52
2024/02/17 05:27:14;;;;;;;15.00;7.95;;;;;;;;;;5051275;28;20033;-55
2024/02/17 05:29:41;;;;;;;10.05;6.55;;;;;;;;;;5051328;28;20055;-55
2024/02/17 05:32:07;;;;;;;8.70;5.13;;;;;;;;;;5051619;28;20056;-53
2024/02/17 05:34:34;;;;;;;8.80;5.20;;;;;;;;;;5051221;28;20052;-56
2024/02/17 05:37:00;;;;;;;12.90;8.43;;;;;;;;;;5051329;28;20098;-53
2024/02/17 05:39:26;;;;;;;10.38;6.57;;;;;;;;;;5051276;28;20032;-56
2024/02/17 05:41:52;;;;;;;14.80;7.63;;;;;;;;;;5050914;28;20371;-54
2024/02/17 05:44:18;;;;;;;22.73;12.40;;;;;;;;;;5051160;28;20533;-54
2024/02/17 05:46:44;;;;;;;15.93;9.85;;;;;;;;;;5050894;28;20021;-53
2024/02/17 05:49:10;;;;;;;19.55;13.07;;;;;;;;;;5049714;28;20045;-53
2024/02/17 05:51:36;;;;;;;13.32;7.63;;;;;;;;;;5050272;28;20051;-54
2024/02/17 05:54:02;;;;;;;15.80;9.50;;;;;;;;;;5049217;28;20028;-56
2024/02/17 05:56:28;;;;;;;18.25;11.30;;;;;;;;;;5050366;28;20081;-54
2024/02/17 05:58:55;;;;;;;8.80;5.25;;;;;;;;;;5057939;22;20507;-55
2024/02/17 06:01:21;;;;;;;9.45;6.65;;;;;;;;;;5031742;28;20411;-48
2024/02/17 06:03:47;;;;;;;8.45;5.00;;;;;;;;;;5030476;28;20025;-51
2024/02/17 06:06:13;;;;;;;8.65;5.30;;;;;;;;;;5031655;28;20132;-50
2024/02/17 06:08:39;;;;;;;8.50;5.07;;;;;;;;;;5030404;28;20116;-51
2024/02/17 06:11:05;;;;;;;18.65;11.57;;;;;;;;;;5031953;28;20380;-51
2024/02/17 06:13:31;;;;;;;13.00;7.55;;;;;;;;;;5029908;28;20462;-48
2024/02/17 06:15:57;;;;;;;8.50;5.07;;;;;;;;;;5031632;28;20025;-50
2024/02/17 06:21:11;;;;;;;8.13;4.85;;;;;;;;;;5031629;28;20048;-49
2024/02/17 06:23:39;;;;;;;12.23;8.35;;;;;;;;;;5031514;28;20029;-51
2024/02/17 06:26:05;;;;;;;8.50;5.00;;;;;;;;;;5030230;28;20033;-55
2024/02/17 06:28:31;;;;;;;8.88;5.50;;;;;;;;;;5031935;28;20052;-54
2024/02/17 06:30:57;;;;;;;10.38;5.97;;;;;;;;;;5031452;28;20025;-50
2024/02/17 06:33:23;;;;;;;9.10;5.75;;;;;;;;;;5030247;28;20022;-50
2024/02/17 06:35:49;;;;;;;11.43;6.88;;;;;;;;;;5031265;28;20036;-47
2024/02/17 06:38:15;;;;;;;16.15;8.52;;;;;;;;;;5031084;28;20022;-53
2024/02/17 06:40:41;;;;;;;10.95;5.20;;;;;;;;;;5031226;28;20033;-53
2024/02/17 06:43:07;;;;;;;9.32;5.57;;;;;;;;;;5030917;28;20525;-51
2024/02/17 06:45:34;;;;;;;8.75;5.30;;;;;;;;;;5030971;28;20442;-52
2024/02/17 06:48:00;;;;;;;8.35;4.97;;;;;;;;;;5030715;28;20079;-50
2024/02/17 06:50:26;;;;;;;8.82;5.05;;;;;;;;;;5030954;28;20075;-50
2024/02/17 06:52:52;;;;;;;10.23;6.93;;;;;;;;;;5029393;28;20024;-51
2024/02/17 06:55:18;;;;;;;10.35;7.35;;;;;;;;;;5030913;28;20140;-49
2024/02/17 06:57:44;;;;;;;9.18;5.88;;;;;;;;;;5031011;28;20029;-49
2024/02/17 07:00:11;;;;;;;9.15;5.50;;;;;;;;;;5031358;28;20144;-49
2024/02/17 07:02:37;;;;;;;12.52;9.63;;;;;;;;;;5030765;28;20040;-50
2024/02/17 07:05:03;;;;;;;9.57;6.20;;;;;;;;;;5029367;28;20078;-49
2024/02/17 07:07:29;;;;;;;8.98;5.68;;;;;;;;;;5030524;28;20056;-54
2024/02/17 07:09:59;;;;;;;13.68;8.00;;;;;;;;;;5032669;28;20025;-52
2024/02/17 07:12:25;;;;;;;8.30;4.97;;;;;;;;;;5046826;28;20013;-50
2024/02/17 07:14:51;;;;;;;8.20;4.90;;;;;;;;;;5030494;28;20490;-48
2024/02/17 07:17:18;;;;;;;8.35;5.00;;;;;;;;;;5038910;28;20021;-49
2024/02/17 07:19:43;;;;;;;10.88;7.03;;;;;;;;;;5050663;28;20028;-52
2024/02/17 07:22:09;;;;;;;8.88;5.30;;;;;;;;;;5048855;28;20036;-51
2024/02/17 07:24:36;;;;;;;9.10;5.40;;;;;;;;;;5050013;28;20029;-53
2024/02/17 07:27:02;;;;;;;9.25;5.43;;;;;;;;;;5031627;28;20076;-50
2024/02/17 07:29:28;;;;;;;8.70;5.10;;;;;;;;;;5030641;28;20434;-50
2024/02/17 07:31:55;;;;;;;19.63;7.25;;;;;;;;;;5029902;28;20021;-52
2024/02/17 07:34:21;;;;;;;9.32;5.68;;;;;;;;;;5028887;28;20079;-51
2024/02/17 07:36:47;;;;;;;10.95;5.90;;;;;;;;;;5028945;28;20394;-53
2024/02/17 07:39:13;;;;;;;8.80;5.20;;;;;;;;;;5030329;28;20025;-49
2024/02/17 07:41:39;;;;;;;8.73;5.38;;;;;;;;;;5028982;28;20415;-55
2024/02/17 07:44:08;;;;;;;9.88;6.75;;;;;;;;;;5048349;28;20021;-53
2024/02/17 07:46:36;;;;;;;10.60;7.15;;;;;;;;;;5049949;28;20028;-53
2024/02/17 07:49:02;;;;;;;9.05;5.43;;;;;;;;;;5049753;28;20032;-49
2024/02/17 07:51:28;;;;;;;8.93;5.28;;;;;;;;;;5049856;28;20441;-52
2024/02/17 07:53:54;;;;;;;8.60;5.10;;;;;;;;;;5049658;28;20025;-56
2024/02/17 07:56:20;;;;;;;8.90;5.30;;;;;;;;;;5049828;28;20032;-55
2024/02/17 07:58:46;;;;;;;9.10;5.43;;;;;;;;;;5048832;28;20028;-52
2024/02/17 08:01:13;;;;;;;10.30;6.30;;;;;;;;;;5048378;28;20029;-56
2024/02/17 08:03:41;;;;;;;10.00;6.00;;;;;;;;;;5048321;28;20045;-51
2024/02/17 08:06:07;;;;;;;11.27;7.18;;;;;;;;;;5049436;28;20040;-55
2024/02/17 08:08:33;;;;;;;10.93;6.55;;;;;;;;;;5048248;28;20033;-53
2024/02/17 08:10:59;;;;;;;11.93;8.52;;;;;;;;;;5034904;28;20017;-52
2024/02/17 08:13:25;;;;;;;9.43;5.53;;;;;;;;;;5031399;28;20018;-53
2024/02/17 08:15:51;;;;;;;13.55;7.18;;;;;;;;;;5032809;28;20427;-50
2024/02/17 08:18:17;;;;;;;9.55;5.70;;;;;;;;;;5032246;28;20538;-55
2024/02/17 08:20:44;;;;;;;9.35;5.53;;;;;;;;;;5033651;28;20109;-52
2024/02/17 08:23:10;;;;;;;10.05;5.90;;;;;;;;;;5032026;28;20027;-53
2024/02/17 08:25:36;;;;;;;10.93;6.63;;;;;;;;;;5033546;28;20022;-53
2024/02/17 08:28:02;;;;;;;13.32;7.57;;;;;;;;;;5033406;28;20079;-55
2024/02/17 08:30:31;;;;;;;10.55;6.20;;;;;;;;;;5033389;28;20475;-56
2024/02/17 08:32:57;;;;;;;10.05;6.05;;;;;;;;;;5033103;28;20073;-56
2024/02/17 08:35:23;;;;;;;10.00;5.90;;;;;;;;;;5033218;28;20029;-55
2024/02/17 08:37:48;;;;;;;9.73;5.70;;;;;;;;;;5033097;28;20037;-53
2024/02/17 08:40:15;;;;;;;16.02;8.75;;;;;;;;;;5033127;28;20095;-56
2024/02/17 08:42:41;;;;;;;9.98;5.88;;;;;;;;;;5031668;28;20026;-56
2024/02/17 08:45:07;;;;;;;10.70;6.47;;;;;;;;;;5047742;28;20044;-56
2024/02/17 08:47:33;;;;;;;10.23;6.03;;;;;;;;;;5051619;28;20505;-52
2024/02/17 08:49:59;;;;;;;12.38;8.15;;;;;;;;;;5051823;28;20479;-54
2024/02/17 08:52:25;;;;;;;11.10;6.72;;;;;;;;;;5052754;28;20108;-55
2024/02/17 08:54:51;;;;;;;11.95;7.97;;;;;;;;;;5051904;28;20020;-52
2024/02/17 08:57:17;;;;;;;10.00;5.90;;;;;;;;;;5051683;28;20033;-56
2024/02/17 08:59:43;;;;;;;13.93;8.77;;;;;;;;;;5053243;28;20820;-54
2024/02/17 09:02:16;;;;;;;10.50;6.13;;;;;;;;;;5052684;28;20116;-55
2024/02/17 09:04:42;;;;;;;10.70;7.00;;;;;;;;;;5053155;28;20033;-50
2024/02/17 09:07:08;;;;;;;10.30;6.25;;;;;;;;;;5052555;28;20047;-51
2024/02/17 09:09:34;;;;;;;9.90;5.80;;;;;;;;;;5053087;28;20025;-55
2024/02/17 09:12:00;;;;;;;9.50;5.68;;;;;;;;;;5038746;28;20145;-54
2024/02/17 09:14:32;;;;;;;10.02;5.90;;;;;;;;;;5032988;28;20032;-54
2024/02/17 09:16:58;;;;;;;11.63;7.45;;;;;;;;;;5032777;28;20148;-55
2024/02/17 09:19:24;;;;;;;15.95;9.90;;;;;;;;;;5032850;28;20022;-54
2024/02/17 09:21:51;;;;;;;9.30;5.50;;;;;;;;;;5032343;28;20029;-55
2024/02/17 09:24:20;;;;;;;12.48;8.55;;;;;;;;;;5032054;28;20096;-51
2024/02/17 09:26:46;;;;;;;15.48;8.57;;;;;;;;;;5032438;28;20061;-52
2024/02/17 09:29:12;;;;;;;10.68;6.32;;;;;;;;;;5032259;28;20025;-52
2024/02/17 09:31:38;;;;;;;13.73;9.35;;;;;;;;;;5032142;28;20615;-53
2024/02/17 09:34:05;;;;;;;9.70;5.70;;;;;;;;;;5030861;28;20494;-53
2024/02/17 09:36:31;;;;;;;9.45;5.57;;;;;;;;;;5032701;28;20100;-54
2024/02/17 09:38:57;;;;;;;9.80;5.75;;;;;;;;;;5032519;28;20531;-53
2024/02/17 09:41:23;;;;;;;9.65;5.72;;;;;;;;;;5032214;28;20032;-49
2024/02/17 09:43:52;;;;;;;9.88;5.82;;;;;;;;;;5032138;28;20026;-54
2024/02/17 09:46:18;;;;;;;9.30;5.50;;;;;;;;;;5032154;28;20026;-53
2024/02/17 09:48:44;;;;;;;9.43;5.63;;;;;;;;;;5032143;28;20650;-53
2024/02/17 09:51:10;;;;;;;10.50;8.05;;;;;;;;;;5032169;28;20321;-53
2024/02/17 09:53:40;;;;;;;10.02;5.93;;;;;;;;;;5031478;28;20026;-50
2024/02/17 09:56:07;;;;;;;12.02;6.95;;;;;;;;;;5030981;28;20034;-52
2024/02/17 09:58:33;;;;;;;9.25;5.43;;;;;;;;;;5032153;28;20041;-51
2024/02/17 10:00:59;;;;;;;12.75;6.97;;;;;;;;;;5030554;28;20025;-56
2024/02/17 10:03:25;;;;;;;10.13;6.07;;;;;;;;;;5030601;28;20072;-54
2024/02/17 10:05:51;;;;;;;17.95;8.70;;;;;;;;;;5032048;28;20689;-50
2024/02/17 10:08:17;;;;;;;8.93;5.28;;;;;;;;;;5030967;28;20438;-56
2024/02/17 10:10:44;;;;;;;9.07;5.30;;;;;;;;;;5031993;28;20041;-52
2024/02/17 10:13:17;;;;;;;9.98;6.20;;;;;;;;;;5031934;28;20021;-62
2024/02/17 10:15:43;;;;;;;9.60;5.63;;;;;;;;;;5031377;28;20376;-48
2024/02/17 10:18:09;;;;;;;10.85;6.88;;;;;;;;;;5032419;28;20029;-48
2024/02/17 10:20:37;;;;;;;14.90;7.82;;;;;;;;;;5031916;28;20257;-53
2024/02/17 10:23:03;;;;;;;8.23;4.90;;;;;;;;;;5032504;28;20427;-54
2024/02/17 10:25:29;;;;;;;9.52;5.80;;;;;;;;;;5034516;28;20035;-49
2024/02/17 10:27:55;;;;;;;8.80;5.30;;;;;;;;;;5032129;28;20023;-49
2024/02/17 10:30:21;;;;;;;9.43;5.80;;;;;;;;;;5031865;28;20049;-51
2024/02/17 10:32:47;;;;;;;8.70;5.20;;;;;;;;;;5031385;28;20022;-53
2024/02/17 10:35:14;;;;;;;9.00;5.35;;;;;;;;;;5031087;28;20037;-55
2024/02/17 10:37:41;;;;;;;8.77;5.20;;;;;;;;;;5030168;28;20535;-55
2024/02/17 10:40:08;;;;;;;10.00;6.53;;;;;;;;;;5027420;28;20040;-52
2024/02/17 10:42:34;;;;;;;10.95;6.88;;;;;;;;;;5029744;28;20049;-51
2024/02/17 10:45:00;;;;;;;9.48;5.55;;;;;;;;;;5031297;28;20069;-50
2024/02/17 10:47:28;;;;;;;9.55;5.72;;;;;;;;;;5026076;28;20132;-51
2024/02/17 10:50:01;;;;;;;16.98;8.75;;;;;;;;;;5051434;28;20029;-53
2024/02/17 10:52:29;;;;;;;12.75;10.85;;;;;;;;;;5050697;28;20060;-51
2024/02/17 10:54:57;;;;;;;9.70;5.80;;;;;;;;;;5049230;28;20032;-54
2024/02/17 10:57:24;;;;;;;11.25;7.45;;;;;;;;;;5047690;28;20466;-54
2024/02/17 10:59:51;;;;;;;10.82;6.72;;;;;;;;;;5049347;28;20124;-52
2024/02/17 11:02:21;;;;;;;9.68;5.72;;;;;;;;;;5047677;28;20021;-51
2024/02/17 11:04:48;;;;;;;10.07;6.18;;;;;;;;;;5049805;28;20025;-66
2024/02/17 11:07:16;;;;;;;9.88;5.85;;;;;;;;;;5048469;28;20356;-59
2024/02/17 11:09:45;;;;;;;9.27;5.50;;;;;;;;;;5049402;28;20021;-49
2024/02/17 11:12:30;;;;;;;9.70;5.70;;;;;;;;;;5034698;28;20388;-50
2024/02/17 11:15:00;;;;;;;10.77;7.25;;;;;;;;;;5036843;28;20038;-51
2024/02/17 11:17:30;;;;;;;9.55;5.60;;;;;;;;;;5043054;28;20033;-53
2024/02/17 11:20:06;;;;;;;9.93;5.85;;;;;;;;;;5050697;28;20482;-51
2024/02/17 11:22:34;;;;;;;9.25;5.50;;;;;;;;;;5050479;28;20025;-53
2024/02/17 11:25:01;;;;;;;9.25;5.50;;;;;;;;;;5050151;28;20060;-50
2024/02/17 11:27:27;;;;;;;8.85;5.28;;;;;;;;;;5048842;28;20494;-49
2024/02/17 11:29:53;;;;;;;10.32;6.50;;;;;;;;;;5050468;28;20063;-54
2024/02/17 11:32:19;;;;;;;10.55;6.32;;;;;;;;;;5050186;28;20105;-53
2024/02/17 11:34:45;;;;;;;9.18;5.47;;;;;;;;;;5049938;28;20122;-55
2024/02/17 11:37:13;;;;;;;9.13;5.40;;;;;;;;;;5050302;28;20391;-52
2024/02/17 11:39:41;;;;;;;13.63;8.35;;;;;;;;;;5049999;28;20009;-51
2024/02/17 11:42:07;;;;;;;11.32;6.35;;;;;;;;;;5049883;28;20036;-50
2024/02/17 11:44:33;;;;;;;9.70;6.65;;;;;;;;;;5050163;28;20025;-51
2024/02/17 11:46:59;;;;;;;8.65;5.15;;;;;;;;;;5048741;28;20047;-52
2024/02/17 11:49:34;;;;;;;8.70;5.18;;;;;;;;;;5049793;28;20106;-52
2024/02/17 11:52:01;;;;;;;12.32;7.03;;;;;;;;;;5049772;28;20488;-53
2024/02/17 11:54:27;;;;;;;11.38;7.20;;;;;;;;;;5048675;28;20029;-53
2024/02/17 11:56:54;;;;;;;10.13;6.20;;;;;;;;;;5049526;28;20017;-53
2024/02/17 11:59:20;;;;;;;12.45;7.32;;;;;;;;;;5048067;22;20045;-54
2024/02/17 12:01:50;;;;;;;10.10;6.55;;;;;;;;;;5028020;28;20032;-55
2024/02/17 12:04:17;;;;;;;9.30;5.50;;;;;;;;;;5028765;28;20139;-50
2024/02/17 12:06:43;;;;;;;9.27;5.47;;;;;;;;;;5028527;28;20506;-55
2024/02/17 12:09:09;;;;;;;10.70;6.68;;;;;;;;;;5028137;28;20033;-54
2024/02/17 12:11:35;;;;;;;9.27;5.43;;;;;;;;;;5027885;28;20113;-59
2024/02/17 12:14:03;;;;;;;16.52;12.00;;;;;;;;;;5028412;28;20491;-54
2024/02/17 12:16:29;;;;;;;9.23;5.43;;;;;;;;;;5027259;28;20072;-49
2024/02/17 12:18:55;;;;;;;10.90;7.32;;;;;;;;;;5028154;28;20711;-49
2024/02/17 12:21:21;;;;;;;11.13;7.10;;;;;;;;;;5026745;28;20032;-52
2024/02/17 12:23:47;;;;;;;9.73;5.80;;;;;;;;;;5028069;28;20637;-52
2024/02/17 12:26:14;;;;;;;10.82;6.40;;;;;;;;;;5028403;28;20514;-50
2024/02/17 12:28:42;;;;;;;14.43;8.02;;;;;;;;;;5026530;28;20028;-54
2024/02/17 12:31:12;;;;;;;16.80;10.55;;;;;;;;;;5027030;28;20061;-57
2024/02/17 12:33:47;;;;;;;10.68;6.35;;;;;;;;;;5027368;28;20547;-53
2024/02/17 12:36:21;;;;;;;10.27;6.07;;;;;;;;;;5027884;28;20503;-49
2024/02/17 12:38:47;;;;;;;16.63;10.38;;;;;;;;;;5040916;28;20060;-55
2024/02/17 12:41:16;;;;;;;16.08;8.10;;;;;;;;;;5038905;28;20033;-51
2024/02/17 12:43:48;;;;;;;10.77;6.20;;;;;;;;;;5042746;28;20033;-55
2024/02/17 12:46:20;;;;;;;10.63;6.95;;;;;;;;;;5026908;28;20077;-53
2024/02/17 12:48:49;;;;;;;9.85;5.90;;;;;;;;;;5028082;28;20423;-56
2024/02/17 12:51:19;;;;;;;10.82;8.82;;;;;;;;;;5025789;28;20032;-56
2024/02/17 12:53:44;;;;;;;10.20;6.13;;;;;;;;;;5036216;28;20453;-57
2024/02/17 12:56:10;;;;;;;9.30;5.50;;;;;;;;;;5028091;28;20025;-55
2024/02/17 12:58:36;;;;;;;17.33;7.40;;;;;;;;;;5028649;28;20037;-55
2024/02/17 13:01:02;;;;;;;15.10;10.57;;;;;;;;;;5030301;28;20026;-55
2024/02/17 13:03:28;;;;;;;9.60;5.80;;;;;;;;;;5030073;28;20030;-51
2024/02/17 13:05:54;;;;;;;10.02;5.70;;;;;;;;;;5030337;28;20116;-56
2024/02/17 13:08:20;;;;;;;9.38;5.53;;;;;;;;;;5031803;28;20021;-54
2024/02/17 13:10:46;;;;;;;8.98;5.38;;;;;;;;;;5034304;28;20028;-51
2024/02/17 13:13:12;;;;;;;8.63;5.07;;;;;;;;;;5031061;28;20065;-54
2024/02/17 13:15:39;;;;;;;13.18;6.88;;;;;;;;;;5030281;28;20128;-51
2024/02/17 13:18:06;;;;;;;9.20;5.50;;;;;;;;;;5030109;28;20613;-54
2024/02/17 13:20:32;;;;;;;12.50;7.25;;;;;;;;;;5036813;28;20031;-51
2024/02/17 13:22:58;;;;;;;9.55;5.88;;;;;;;;;;5051054;28;20064;-49
2024/02/17 13:25:24;;;;;;;12.75;8.07;;;;;;;;;;5050288;28;20556;-51
2024/02/17 13:27:50;;;;;;;9.15;5.40;;;;;;;;;;5051833;28;20100;-53
2024/02/17 13:30:18;;;;;;;10.55;5.95;;;;;;;;;;5051260;28;20028;-52
2024/02/17 13:32:45;;;;;;;8.38;5.00;;;;;;;;;;5041313;28;20025;-52
2024/02/17 13:35:12;;;;;;;11.23;6.50;;;;;;;;;;5051345;28;20036;-51
2024/02/17 13:37:38;;;;;;;8.60;5.10;;;;;;;;;;5051149;28;20058;-49
2024/02/17 13:40:07;;;;;;;9.82;5.63;;;;;;;;;;5051600;28;20021;-47
2024/02/17 13:42:34;;;;;;;9.85;5.72;;;;;;;;;;5051647;28;20025;-51
2024/02/17 13:45:00;;;;;;;8.77;5.18;;;;;;;;;;5051475;28;20056;-50
2024/02/17 13:47:32;;;;;;;8.45;5.00;;;;;;;;;;5050800;28;20099;-51
2024/02/17 13:49:59;;;;;;;8.82;5.28;;;;;;;;;;5049779;28;20036;-55
2024/02/17 13:52:25;;;;;;;11.70;5.10;;;;;;;;;;5051047;28;20036;-55
2024/02/17 13:54:51;;;;;;;8.82;5.30;;;;;;;;;;5051078;28;20478;-50
2024/02/17 13:57:17;;;;;;;8.77;5.20;;;;;;;;;;5051030;28;20491;-53
2024/02/17 13:59:45;;;;;;;8.90;5.28;;;;;;;;;;5037360;28;20055;-52
2024/02/17 14:02:11;;;;;;;8.77;5.27;;;;;;;;;;5030458;28;20021;-55
2024/02/17 14:04:37;;;;;;;9.90;6.00;;;;;;;;;;5040184;28;20275;-53
2024/02/17 14:07:03;;;;;;;8.70;5.10;;;;;;;;;;5048274;28;20499;-60
2024/02/17 14:09:29;;;;;;;9.50;5.60;;;;;;;;;;5051807;28;20055;-62
2024/02/17 14:11:55;;;;;;;10.35;6.10;;;;;;;;;;5038470;28;20794;-53
2024/02/17 14:14:21;;;;;;;9.48;5.60;;;;;;;;;;5030666;28;20091;-49
2024/02/17 14:16:47;;;;;;;9.15;5.38;;;;;;;;;;5030504;28;20018;-50
2024/02/17 14:19:13;;;;;;;9.20;5.50;;;;;;;;;;5028669;28;20068;-55
2024/02/17 14:21:39;;;;;;;12.35;7.80;;;;;;;;;;5030211;28;20475;-55
2024/02/17 14:24:06;;;;;;;9.98;7.00;;;;;;;;;;5030910;28;20132;-56
2024/02/17 14:26:32;;;;;;;9.20;5.47;;;;;;;;;;5030379;28;20587;-52
2024/02/17 14:28:58;;;;;;;9.60;5.60;;;;;;;;;;5028684;28;20021;-55
2024/02/17 14:31:26;;;;;;;11.02;6.78;;;;;;;;;;5029599;28;20476;-50